createdAt,value
2019-03-23T12:14:43.456Z,80.60
2019-03-23T12:19:28.947Z,80.40
2019-03-23T12:24:14.217Z,78.90
2019-03-23T12:28:59.962Z,81.90
2019-03-23T12:33:45.201Z,83.10
2019-03-23T12:38:30.419Z,81.50
2019-03-23T12:43:15.755Z,81.20
2019-03-23T12:48:01.167Z,82.20
2019-03-23T12:52:46.484Z,82.00
2019-03-23T12:57:50.675Z,79.80
2019-03-23T13:02:23.648Z,80.40
2019-03-23T13:07:08.777Z,79.80
2019-03-23T13:11:54.084Z,78.30
2019-03-23T13:16:40.849Z,78.80
2019-03-23T13:21:26.176Z,79.30
2019-03-23T13:31:06.185Z,78.70
2019-03-23T13:35:51.625Z,78.50
2019-03-23T13:40:40.061Z,78.00
2019-03-23T13:45:25.601Z,79.70
2019-03-23T13:50:11.564Z,79.70
2019-03-23T13:54:57.140Z,79.80
2019-03-23T13:59:42.635Z,78.40
2019-03-23T14:04:27.926Z,78.50
2019-03-23T14:09:13.106Z,79.30
2019-03-23T14:13:58.386Z,80.30
2019-03-23T14:18:43.567Z,79.90
2019-03-23T14:23:28.853Z,79.30
2019-03-23T14:28:14.394Z,79.30
2019-03-23T14:32:59.795Z,79.30
2019-03-23T14:37:45.142Z,80.20
2019-03-23T14:42:31.134Z,81.40
2019-03-23T14:47:16.346Z,80.30
2019-03-23T14:52:01.473Z,78.90
2019-03-23T14:56:46.708Z,78.70
2019-03-23T15:01:31.931Z,80.50
2019-03-23T15:06:17.444Z,81.60
2019-03-23T15:11:02.671Z,80.70
2019-03-23T15:15:48.293Z,82.20
2019-03-23T15:20:33.517Z,82.10
2019-03-23T15:25:19.186Z,81.80
2019-03-23T15:30:04.890Z,82.60
2019-03-23T15:34:50.082Z,82.80
2019-03-23T15:39:35.676Z,83.70
2019-03-23T15:44:28.670Z,84.90
2019-03-23T15:49:14.462Z,85.30
2019-03-23T15:53:59.663Z,86.80
2019-03-23T15:58:44.866Z,85.80
2019-03-23T16:03:30.202Z,84.30
2019-03-23T16:08:15.379Z,84.00
2019-03-23T16:13:00.575Z,85.00
2019-03-23T16:17:46.015Z,85.10
2019-03-23T16:27:46.635Z,89.10
2019-03-23T16:32:32.050Z,90.80
2019-03-23T16:37:17.266Z,92.40
2019-03-23T16:42:02.471Z,94.30
2019-03-23T16:46:47.631Z,96.60
2019-03-23T16:51:32.831Z,99.90
2019-03-23T16:56:18.077Z,99.90
2019-03-23T17:01:03.383Z,99.90
2019-03-23T17:05:48.870Z,99.90
2019-03-23T17:10:41.829Z,99.90
2019-03-23T17:15:27.241Z,99.90
2019-03-23T17:20:13.533Z,99.90
2019-03-23T17:24:58.770Z,99.90
2019-03-23T17:29:44.149Z,99.90
2019-03-23T17:34:29.833Z,99.90
2019-03-23T17:39:18.290Z,99.90
2019-03-23T17:44:10.354Z,99.90
2019-03-23T17:49:15.140Z,99.90
2019-03-23T17:54:00.759Z,99.90
2019-03-23T17:58:46.628Z,99.90
2019-03-23T18:03:34.034Z,99.90
2019-03-23T18:08:19.471Z,99.90
2019-03-23T18:13:05.055Z,99.90
2019-03-23T18:17:51.306Z,99.90
2019-03-23T18:22:36.693Z,99.90
2019-03-23T18:27:22.315Z,99.90
2019-03-23T18:32:07.534Z,99.90
2019-03-23T18:36:54.493Z,99.90
2019-03-23T18:41:40.234Z,99.90
2019-03-23T18:46:25.650Z,99.90
2019-03-23T18:51:11.424Z,99.90
2019-03-23T18:55:58.049Z,99.90
2019-03-23T19:00:45.634Z,99.90
2019-03-23T19:05:31.186Z,99.90
2019-03-23T19:10:16.738Z,99.90
2019-03-23T19:15:02.005Z,99.90
2019-03-23T19:19:48.639Z,99.90
2019-03-23T19:24:33.983Z,99.90
2019-03-23T19:29:19.523Z,99.90
2019-03-23T19:34:10.657Z,99.90
2019-03-23T19:38:56.489Z,99.90
2019-03-23T19:43:48.584Z,99.90
2019-03-23T19:48:30.149Z,99.90
2019-03-23T19:53:15.501Z,99.90
2019-03-23T19:58:01.940Z,99.90
2019-03-23T20:02:47.296Z,99.90
2019-03-23T20:07:33.430Z,99.90
2019-03-23T20:12:18.955Z,99.90
2019-03-23T20:17:29.058Z,99.90
2019-03-23T20:22:38.958Z,99.90
2019-03-23T20:28:08.340Z,99.90
2019-03-23T20:33:45.612Z,99.90
2019-03-23T20:38:40.421Z,99.90
2019-03-23T20:49:26.395Z,99.90
2019-03-23T20:54:13.682Z,99.90
2019-03-23T20:58:59.195Z,99.90
2019-03-23T21:03:44.547Z,99.90
2019-03-23T21:08:30.072Z,99.90
2019-03-23T21:13:15.488Z,99.90
2019-03-23T21:18:00.888Z,99.90
2019-03-23T21:22:46.156Z,99.90
2019-03-23T21:27:31.635Z,99.90
2019-03-23T21:32:16.946Z,99.90
2019-03-23T21:37:02.451Z,99.90
2019-03-23T21:41:48.017Z,99.90
2019-03-23T21:46:33.422Z,99.90
2019-03-23T21:51:18.870Z,99.90
2019-03-23T21:56:04.029Z,99.90
2019-03-23T22:00:49.171Z,99.90
2019-03-23T22:05:34.610Z,99.90
2019-03-23T22:10:19.889Z,99.90
2019-03-23T22:15:05.681Z,99.90
2019-03-23T22:19:51.252Z,99.90
2019-03-23T22:24:36.579Z,99.90
2019-03-23T22:29:21.994Z,99.90
2019-03-23T22:34:07.124Z,99.90
2019-03-23T22:38:52.515Z,99.90
2019-03-23T22:43:38.069Z,99.90
2019-03-23T22:48:23.475Z,99.90
2019-03-23T22:53:09.016Z,99.90
2019-03-23T22:57:54.515Z,99.90
2019-03-23T23:02:39.824Z,99.90
2019-03-23T23:07:25.206Z,99.90
2019-03-23T23:12:10.486Z,99.90
2019-03-23T23:17:04.209Z,99.90
2019-03-23T23:21:49.336Z,99.90
2019-03-23T23:26:34.649Z,99.90
2019-03-23T23:31:19.845Z,99.90
2019-03-23T23:36:05.415Z,99.90
2019-03-23T23:40:50.863Z,99.90
2019-03-23T23:45:36.163Z,99.90
2019-03-23T23:50:21.674Z,99.90
2019-03-23T23:55:07.240Z,99.90
2019-03-23T23:59:52.561Z,99.90
